Time;durP1;ratioP1;P1;durP2;ratioP2;P2;SDS_P1;SDS_P2;PMS_P1;PMS_P2;Temp;Humidity;BMP_temperature;BMP_pressure;BME280_temperature;BME280_humidity;BME280_pressure;Samples;Min_cycle;Max_cycle;Signal;HPM_P1;HPM_P2
2021/09/09 00:01:40;;;;;;;10.43;6.03;;;11.40;99.90;;;;;;4157409;28;20068;-62
2021/09/09 00:03:42;;;;;;;15.70;6.63;;;11.40;99.90;;;;;;4157601;28;20444;-62
2021/09/09 00:05:44;;;;;;;13.73;6.40;;;11.30;99.90;;;;;;4156324;28;20877;-62
2021/09/09 00:07:45;;;;;;;9.00;6.27;;;11.30;99.90;;;;;;4157595;28;20033;-63
2021/09/09 00:09:46;;;;;;;8.17;6.03;;;11.30;99.90;;;;;;4158266;28;20041;-63
2021/09/09 00:11:47;;;;;;;10.67;5.73;;;11.30;99.90;;;;;;4156879;28;20095;-63
2021/09/09 00:13:48;;;;;;;11.77;5.80;;;11.30;99.90;;;;;;4158369;28;20549;-62
2021/09/09 00:15:50;;;;;;;8.93;6.00;;;11.30;99.90;;;;;;4157035;28;20076;-62
2021/09/09 00:17:51;;;;;;;10.27;6.03;;;11.30;99.90;;;;;;4156765;28;20091;-62
2021/09/09 00:19:52;;;;;;;10.73;7.23;;;11.30;99.90;;;;;;4155726;28;20083;-63
2021/09/09 00:21:53;;;;;;;10.00;6.33;;;11.20;99.90;;;;;;4158085;28;20485;-61
2021/09/09 00:23:54;;;;;;;10.93;6.60;;;11.20;99.90;;;;;;4156586;28;20473;-62
2021/09/09 00:25:55;;;;;;;10.20;7.07;;;11.20;99.90;;;;;;4157895;28;20037;-64
2021/09/09 00:27:57;;;;;;;9.63;6.07;;;11.20;99.90;;;;;;4156395;28;20115;-63
2021/09/09 00:29:58;;;;;;;12.50;7.93;;;11.20;99.90;;;;;;4157964;28;20037;-63
2021/09/09 00:31:59;;;;;;;13.87;7.50;;;11.30;99.90;;;;;;4157028;28;20033;-62
2021/09/09 00:34:00;;;;;;;12.53;6.83;;;11.30;99.90;;;;;;4157281;28;20033;-62
2021/09/09 00:36:02;;;;;;;10.70;6.70;;;11.20;99.90;;;;;;4157680;28;20084;-63
2021/09/09 00:38:05;;;;;;;13.97;7.43;;;11.20;99.90;;;;;;4156435;28;20041;-61
2021/09/09 00:40:07;;;;;;;11.23;7.30;;;11.20;99.90;;;;;;4157570;28;20034;-62
2021/09/09 00:42:08;;;;;;;13.73;7.63;;;11.10;99.90;;;;;;4156769;28;20033;-63
2021/09/09 00:44:23;;;;;;;14.00;9.23;;;10.90;99.90;;;;;;4157726;28;20087;-62
2021/09/09 00:46:24;;;;;;;11.50;8.60;;;10.80;99.90;;;;;;4156519;28;20045;-62
2021/09/09 00:48:26;;;;;;;16.73;9.77;;;10.70;99.90;;;;;;4157668;28;20547;-61
2021/09/09 00:50:27;;;;;;;13.30;9.33;;;10.50;99.90;;;;;;4155903;28;20419;-63
2021/09/09 00:52:28;;;;;;;13.23;8.30;;;10.50;99.90;;;;;;4157813;28;20571;-63
2021/09/09 00:54:29;;;;;;;18.50;8.43;;;10.30;99.90;;;;;;4156412;28;20477;-61
2021/09/09 00:56:30;;;;;;;18.73;9.13;;;10.10;99.90;;;;;;4157838;28;20026;-64
2021/09/09 00:58:33;;;;;;;13.60;8.77;;;10.00;99.90;;;;;;4156245;28;20029;-62
2021/09/09 01:00:35;;;;;;;19.67;9.23;;;9.80;99.90;;;;;;4157888;28;20025;-62
2021/09/09 01:02:36;;;;;;;18.37;8.93;;;9.60;99.90;;;;;;4155968;28;20029;-62
2021/09/09 01:04:37;;;;;;;20.20;10.27;;;9.60;99.90;;;;;;4157356;28;20034;-62
2021/09/09 01:06:39;;;;;;;14.40;8.57;;;9.50;99.90;;;;;;4156243;28;20122;-63
2021/09/09 01:08:40;;;;;;;16.50;9.17;;;9.50;99.90;;;;;;4157341;28;20026;-62
2021/09/09 01:10:41;;;;;;;13.77;8.80;;;9.50;99.90;;;;;;4157116;28;20056;-62
2021/09/09 01:12:42;;;;;;;18.40;9.50;;;9.50;99.90;;;;;;4156380;28;20041;-61
2021/09/09 01:14:43;;;;;;;20.37;9.77;;;9.50;99.90;;;;;;4156968;28;20087;-62
2021/09/09 01:16:45;;;;;;;18.40;9.73;;;9.50;99.90;;;;;;4155809;28;20099;-58
2021/09/09 01:18:46;;;;;;;16.33;10.10;;;9.60;99.90;;;;;;4157326;28;20055;-62
2021/09/09 01:20:48;;;;;;;18.03;10.23;;;9.60;99.90;;;;;;4156034;28;20038;-61
2021/09/09 01:22:49;;;;;;;16.37;9.93;;;9.60;99.90;;;;;;4157234;28;20606;-62
2021/09/09 01:24:50;;;;;;;18.43;10.90;;;9.60;99.90;;;;;;4154667;28;20037;-62
2021/09/09 01:26:57;;;;;;;24.87;10.17;;;9.60;99.90;;;;;;4156890;28;20049;-61
2021/09/09 01:28:58;;;;;;;24.97;11.00;;;9.60;99.90;;;;;;4155749;28;20091;-62
2021/09/09 01:30:59;;;;;;;24.43;11.07;;;9.60;99.90;;;;;;4157227;28;20448;-61
2021/09/09 01:33:01;;;;;;;15.67;9.47;;;9.60;99.90;;;;;;4155874;28;20037;-60
2021/09/09 01:35:03;;;;;;;19.00;10.00;;;9.50;99.90;;;;;;4155692;28;20375;-61
2021/09/09 01:37:05;;;;;;;18.07;9.93;;;9.50;99.90;;;;;;4156049;28;20470;-61
2021/09/09 01:39:06;;;;;;;16.20;9.40;;;9.40;99.90;;;;;;4156444;28;20561;-60
2021/09/09 01:41:08;;;;;;;18.13;9.60;;;9.40;99.90;;;;;;4156473;28;20041;-61
2021/09/09 01:43:09;;;;;;;21.00;9.90;;;9.30;99.90;;;;;;4156501;28;20033;-61
2021/09/09 01:45:10;;;;;;;19.60;10.63;;;9.30;99.90;;;;;;4156687;28;20029;-61
2021/09/09 01:47:11;;;;;;;16.73;10.40;;;9.30;99.90;;;;;;4156246;28;20589;-61
2021/09/09 01:49:13;;;;;;;18.97;10.20;;;9.30;99.90;;;;;;4158534;28;20041;-61
2021/09/09 01:51:14;;;;;;;17.87;9.83;;;9.30;99.90;;;;;;4159077;28;20519;-61
2021/09/09 01:53:15;;;;;;;20.60;11.03;;;9.30;99.90;;;;;;4160425;28;20029;-61
2021/09/09 01:55:16;;;;;;;20.03;10.10;;;9.30;99.90;;;;;;4158726;28;20461;-61
2021/09/09 01:57:17;;;;;;;17.53;10.53;;;9.40;99.90;;;;;;4160476;28;20087;-61
2021/09/09 01:59:18;;;;;;;21.27;9.63;;;9.50;99.90;;;;;;4158782;28;20029;-61
2021/09/09 02:01:20;;;;;;;21.40;9.70;;;9.50;99.90;;;;;;4159911;28;20030;-61
2021/09/09 02:03:21;;;;;;;19.87;9.37;;;9.60;99.90;;;;;;4158718;28;20034;-61
2021/09/09 02:05:22;;;;;;;20.87;10.10;;;9.60;99.90;;;;;;4159618;28;20038;-61
2021/09/09 02:07:23;;;;;;;18.90;9.83;;;9.60;99.90;;;;;;4158574;28;20057;-61
2021/09/09 02:09:25;;;;;;;18.30;9.77;;;9.70;99.90;;;;;;4159759;28;20448;-61
2021/09/09 02:11:26;;;;;;;18.17;9.30;;;9.70;99.90;;;;;;4158820;28;20481;-60
2021/09/09 02:13:27;;;;;;;15.33;9.77;;;9.70;99.90;;;;;;4158693;28;20087;-61
2021/09/09 02:15:28;;;;;;;20.13;10.30;;;9.70;99.90;;;;;;4159630;28;20037;-61
2021/09/09 02:17:30;;;;;;;18.30;9.83;;;9.70;99.90;;;;;;4158390;28;20103;-62
2021/09/09 02:19:31;;;;;;;20.30;10.57;;;9.70;99.90;;;;;;4159703;28;20084;-62
2021/09/09 02:21:33;;;;;;;20.83;11.20;;;9.60;99.90;;;;;;4158984;28;20037;-62
2021/09/09 02:23:34;;;;;;;20.07;9.93;;;9.60;99.90;;;;;;4159792;28;20419;-61
2021/09/09 02:25:35;;;;;;;16.23;10.30;;;9.60;99.90;;;;;;4158562;28;20030;-61
2021/09/09 02:27:36;;;;;;;17.23;9.17;;;9.60;99.90;;;;;;4159865;28;20385;-61
2021/09/09 02:29:37;;;;;;;17.37;9.53;;;9.60;99.90;;;;;;4158096;28;20488;-61
2021/09/09 02:31:38;;;;;;;15.57;9.33;;;9.60;99.90;;;;;;4159478;28;20091;-63
2021/09/09 02:33:39;;;;;;;16.03;9.43;;;9.60;99.90;;;;;;4157618;28;20026;-61
2021/09/09 02:35:41;;;;;;;18.27;9.33;;;9.60;99.90;;;;;;4159315;28;20096;-62
2021/09/09 02:37:42;;;;;;;15.60;8.97;;;9.50;99.90;;;;;;4158064;28;20033;-61
2021/09/09 02:39:46;;;;;;;14.17;8.13;;;9.40;99.90;;;;;;4159504;28;20083;-62
2021/09/09 02:41:47;;;;;;;17.00;9.67;;;9.40;99.90;;;;;;4158898;28;20374;-61
2021/09/09 02:43:49;;;;;;;21.43;9.10;;;9.40;99.90;;;;;;4158418;28;20037;-61
2021/09/09 02:45:50;;;;;;;18.70;10.47;;;9.40;99.90;;;;;;4158341;28;20029;-61
2021/09/09 02:47:51;;;;;;;16.07;8.87;;;9.40;99.90;;;;;;4158470;28;20045;-62
2021/09/09 02:49:52;;;;;;;16.07;9.17;;;9.40;99.90;;;;;;4159060;28;20095;-61
2021/09/09 02:51:53;;;;;;;18.53;9.97;;;9.40;99.90;;;;;;4158224;28;20163;-62
2021/09/09 02:53:54;;;;;;;16.60;9.07;;;9.30;99.90;;;;;;4159044;28;20441;-62
2021/09/09 02:55:55;;;;;;;18.53;8.47;;;9.30;99.90;;;;;;4157768;28;20041;-61
2021/09/09 02:57:56;;;;;;;16.33;9.17;;;9.30;99.90;;;;;;4158698;28;20049;-62
2021/09/09 02:59:59;;;;;;;22.50;10.37;;;9.40;99.90;;;;;;4157159;28;20366;-61
2021/09/09 03:02:00;;;;;;;22.13;9.90;;;9.40;99.90;;;;;;4159018;28;20099;-61
2021/09/09 03:04:01;;;;;;;22.13;10.23;;;9.30;99.90;;;;;;4157884;28;20034;-61
2021/09/09 03:06:02;;;;;;;27.07;10.37;;;9.30;99.90;;;;;;4158903;28;20099;-62
2021/09/09 03:08:03;;;;;;;23.70;10.00;;;9.20;99.90;;;;;;4157732;28;20887;-61
2021/09/09 03:10:06;;;;;;;16.50;9.67;;;9.20;99.90;;;;;;4159491;28;20086;-62
2021/09/09 03:12:07;;;;;;;19.90;10.13;;;9.20;99.90;;;;;;4157298;28;20119;-61
2021/09/09 03:14:08;;;;;;;21.60;9.13;;;9.20;99.90;;;;;;4158038;28;20088;-61
2021/09/09 03:16:09;;;;;;;20.20;9.07;;;9.30;99.90;;;;;;4158091;28;20071;-61
2021/09/09 03:18:10;;;;;;;21.50;9.23;;;9.30;99.90;;;;;;4157978;28;20459;-62
2021/09/09 03:20:12;;;;;;;21.80;8.33;;;9.30;99.90;;;;;;4158759;28;20107;-63
2021/09/09 03:22:13;;;;;;;14.17;7.77;;;9.30;99.90;;;;;;4157331;28;20465;-62
2021/09/09 03:24:15;;;;;;;14.90;7.37;;;9.40;99.90;;;;;;4158959;28;20042;-62
2021/09/09 03:26:16;;;;;;;13.50;7.03;;;9.40;99.90;;;;;;4157748;28;20029;-61
2021/09/09 03:28:17;;;;;;;11.87;7.40;;;9.40;99.90;;;;;;4158836;28;20042;-61
2021/09/09 03:30:19;;;;;;;13.93;6.77;;;9.40;99.90;;;;;;4157383;28;20038;-61
2021/09/09 03:32:20;;;;;;;12.77;6.73;;;9.40;99.90;;;;;;4158846;28;20781;-61
2021/09/09 03:34:21;;;;;;;11.93;7.17;;;9.40;99.90;;;;;;4157163;28;20030;-62
2021/09/09 03:36:23;;;;;;;15.40;7.30;;;9.40;99.90;;;;;;4158857;28;20486;-61
2021/09/09 03:38:24;;;;;;;12.30;6.53;;;9.30;99.90;;;;;;4157051;28;20034;-61
2021/09/09 03:40:25;;;;;;;12.60;7.40;;;9.30;99.90;;;;;;4158753;28;20064;-62
2021/09/09 03:42:27;;;;;;;18.73;7.53;;;9.30;99.90;;;;;;4156830;28;20021;-60
2021/09/09 03:44:28;;;;;;;14.93;7.37;;;9.30;99.90;;;;;;4158316;28;20088;-62
2021/09/09 03:46:29;;;;;;;13.90;6.53;;;9.30;99.90;;;;;;4157070;28;20045;-62
2021/09/09 03:48:30;;;;;;;15.20;6.97;;;9.30;99.90;;;;;;4157468;28;20118;-61
2021/09/09 03:50:32;;;;;;;11.40;6.30;;;9.30;99.90;;;;;;4157734;28;20497;-62
2021/09/09 03:52:33;;;;;;;10.93;6.90;;;9.30;99.90;;;;;;4157200;28;20084;-62
2021/09/09 03:54:34;;;;;;;19.73;8.23;;;9.20;99.90;;;;;;4158180;28;20096;-62
2021/09/09 03:56:35;;;;;;;11.20;7.10;;;9.20;99.90;;;;;;4157056;28;20046;-62
2021/09/09 03:58:37;;;;;;;14.83;7.43;;;9.10;99.90;;;;;;4158423;28;20022;-62
2021/09/09 04:00:38;;;;;;;11.27;6.83;;;9.10;99.90;;;;;;4153978;28;20573;-62
2021/09/09 04:02:39;;;;;;;15.27;7.87;;;9.10;99.90;;;;;;4141895;28;20030;-62
2021/09/09 04:04:40;;;;;;;15.27;9.57;;;9.00;99.90;;;;;;4138498;28;20033;-64
2021/09/09 04:06:41;;;;;;;16.07;8.60;;;9.00;99.90;;;;;;4141683;28;20045;-62
2021/09/09 04:08:42;;;;;;;20.40;8.90;;;9.00;99.90;;;;;;4140141;28;20046;-61
2021/09/09 04:10:43;;;;;;;12.30;7.27;;;8.90;99.90;;;;;;4141669;28;20342;-62
2021/09/09 04:12:45;;;;;;;12.93;7.40;;;8.90;99.90;;;;;;4126850;28;20108;-63
2021/09/09 04:14:46;;;;;;;15.07;8.67;;;8.90;99.90;;;;;;4124527;28;20471;-62
2021/09/09 04:16:47;;;;;;;22.70;9.20;;;9.00;99.90;;;;;;4123916;28;20097;-61
2021/09/09 04:18:48;;;;;;;17.33;9.43;;;9.20;99.90;;;;;;4124473;28;20128;-61
2021/09/09 04:20:49;;;;;;;17.33;8.77;;;9.50;99.90;;;;;;4124470;28;20069;-61
2021/09/09 04:22:50;;;;;;;17.70;9.20;;;9.80;99.90;;;;;;4124412;28;20181;-61
2021/09/09 04:24:51;;;;;;;19.00;9.83;;;10.20;99.90;;;;;;4124884;28;20579;-62
2021/09/09 04:26:53;;;;;;;17.97;9.83;;;10.50;99.90;;;;;;4123798;28;20035;-61
2021/09/09 04:28:54;;;;;;;24.30;10.03;;;10.90;99.90;;;;;;4125032;28;20040;-60
2021/09/09 04:30:55;;;;;;;19.80;10.97;;;11.10;99.90;;;;;;4124928;28;20545;-63
2021/09/09 04:32:56;;;;;;;22.33;11.60;;;11.40;99.90;;;;;;4125367;28;20100;-61
2021/09/09 04:34:57;;;;;;;16.80;10.43;;;11.60;99.90;;;;;;4118813;28;20049;-61
2021/09/09 04:36:58;;;;;;;25.27;11.57;;;11.90;99.90;;;;;;4149145;28;20049;-61
2021/09/09 04:38:59;;;;;;;16.43;10.67;;;12.00;99.90;;;;;;4142142;28;20038;-61
2021/09/09 04:41:01;;;;;;;16.47;10.10;;;12.10;99.90;;;;;;4143089;28;20029;-60
2021/09/09 04:43:02;;;;;;;24.33;10.50;;;12.10;99.90;;;;;;4144740;28;20700;-61
2021/09/09 04:45:05;;;;;;;25.57;9.97;;;12.30;99.90;;;;;;4145863;28;20088;-61
2021/09/09 04:47:07;;;;;;;22.63;10.80;;;12.70;99.90;;;;;;4118003;28;20521;-61
2021/09/09 04:49:08;;;;;;;25.53;11.60;;;13.10;99.90;;;;;;4139564;28;20095;-63
2021/09/09 04:51:09;;;;;;;27.03;9.90;;;13.50;99.90;;;;;;4140777;28;20030;-60
2021/09/09 04:53:10;;;;;;;24.37;10.67;;;13.80;99.90;;;;;;4139111;28;20037;-61
2021/09/09 04:55:11;;;;;;;17.20;9.13;;;14.20;99.90;;;;;;4138744;28;20078;-63
2021/09/09 04:57:13;;;;;;;19.90;9.27;;;14.60;99.90;;;;;;4137880;28;20109;-61
2021/09/09 04:59:14;;;;;;;26.40;10.40;;;15.10;99.90;;;;;;4124688;28;20105;-63
2021/09/09 05:01:15;;;;;;;25.07;9.43;;;15.50;99.90;;;;;;4122449;28;20467;-62
2021/09/09 05:03:16;;;;;;;32.23;10.30;;;15.90;99.90;;;;;;4124620;28;20042;-64
2021/09/09 05:05:17;;;;;;;24.80;9.65;;;15.60;99.90;;;;;;4123532;28;20196;-62
2021/09/09 05:07:18;;;;;;;24.50;9.50;;;15.40;99.90;;;;;;4124511;28;20034;-62
2021/09/09 05:09:19;;;;;;;22.80;9.10;;;15.60;99.90;;;;;;4122874;28;20538;-62
2021/09/09 05:11:21;;;;;;;20.70;9.05;;;15.70;99.90;;;;;;4124723;28;20072;-62
2021/09/09 05:13:22;;;;;;;24.83;9.18;;;15.60;99.90;;;;;;4123072;28;20096;-62
2021/09/09 05:15:24;;;;;;;26.20;8.98;;;15.90;99.90;;;;;;4124029;28;20113;-62
2021/09/09 05:17:25;;;;;;;27.48;9.50;;;16.30;99.90;;;;;;4123923;28;20018;-62
2021/09/09 05:19:27;;;;;;;22.20;8.65;;;16.40;99.90;;;;;;4123406;28;20080;-61
2021/09/09 05:21:28;;;;;;;23.10;9.43;;;16.60;99.90;;;;;;4124469;28;20410;-61
2021/09/09 05:23:29;;;;;;;30.02;9.10;;;16.80;99.90;;;;;;4131490;28;20099;-62
2021/09/09 05:25:30;;;;;;;21.95;8.50;;;17.00;99.90;;;;;;4139463;28;20655;-61
2021/09/09 05:27:31;;;;;;;18.30;8.32;;;17.40;99.90;;;;;;4137715;28;20097;-61
2021/09/09 05:29:33;;;;;;;30.10;9.95;;;17.40;99.90;;;;;;4142541;28;20084;-61
2021/09/09 05:31:34;;;;;;;24.98;8.55;;;17.50;99.90;;;;;;4136514;28;20073;-63
2021/09/09 05:33:35;;;;;;;22.63;9.10;;;17.70;99.90;;;;;;4143957;28;20494;-62
2021/09/09 05:35:36;;;;;;;16.13;8.57;;;17.80;99.90;;;;;;4142755;28;20100;-60
2021/09/09 05:37:37;;;;;;;21.65;8.85;;;17.80;99.90;;;;;;4144364;28;20033;-62
2021/09/09 05:39:38;;;;;;;24.38;8.18;;;17.60;99.90;;;;;;4143568;28;20357;-61
2021/09/09 05:41:39;;;;;;;23.90;8.05;;;17.80;99.90;;;;;;4143376;28;20486;-62
2021/09/09 05:43:40;;;;;;;19.77;8.27;;;18.10;99.90;;;;;;4139302;28;20045;-60
2021/09/09 05:45:41;;;;;;;22.70;8.40;;;18.30;99.70;;;;;;4142719;28;20453;-61
2021/09/09 05:47:43;;;;;;;16.52;8.68;;;18.30;99.50;;;;;;4142631;28;20111;-61
2021/09/09 05:49:44;;;;;;;17.33;8.23;;;18.60;99.20;;;;;;4142600;28;20084;-62
2021/09/09 05:51:45;;;;;;;34.38;9.52;;;18.90;98.90;;;;;;4143195;28;20092;-61
2021/09/09 05:53:46;;;;;;;23.88;9.63;;;19.10;98.30;;;;;;4142457;28;20486;-63
2021/09/09 05:55:47;;;;;;;29.15;9.95;;;19.10;98.20;;;;;;4143783;28;20096;-62
2021/09/09 05:57:48;;;;;;;30.75;9.98;;;19.40;97.80;;;;;;4142559;28;20034;-61
2021/09/09 05:59:51;;;;;;;18.45;9.30;;;19.40;97.80;;;;;;4143670;28;20034;-61
2021/09/09 06:01:52;;;;;;;28.27;10.32;;;19.70;97.20;;;;;;4143017;28;20034;-61
2021/09/09 06:03:55;;;;;;;31.17;10.43;;;19.90;96.80;;;;;;4143542;28;20042;-62
2021/09/09 06:06:04;;;;;;;23.67;9.95;;;20.20;96.50;;;;;;4142614;28;20050;-61
2021/09/09 06:08:06;;;;;;;20.60;9.38;;;20.20;96.10;;;;;;4143814;28;20064;-61
2021/09/09 06:10:10;;;;;;;17.95;9.70;;;20.20;95.80;;;;;;4143102;28;20091;-62
2021/09/09 06:12:11;;;;;;;31.90;9.55;;;20.10;95.80;;;;;;4143319;28;20605;-61
2021/09/09 06:14:14;;;;;;;20.80;9.77;;;20.30;95.80;;;;;;4141971;28;20114;-62
2021/09/09 06:16:15;;;;;;;22.08;9.32;;;20.70;95.50;;;;;;4136783;28;20034;-62
2021/09/09 06:18:16;;;;;;;24.77;8.70;;;20.70;94.80;;;;;;4126307;28;20031;-62
2021/09/09 06:20:17;;;;;;;21.83;9.52;;;20.80;94.70;;;;;;4128416;28;20426;-62
2021/09/09 06:22:18;;;;;;;29.13;9.25;;;20.90;94.60;;;;;;4140392;28;20030;-62
2021/09/09 06:24:19;;;;;;;26.30;10.55;;;21.00;94.40;;;;;;4137354;28;20064;-63
2021/09/09 06:26:21;;;;;;;19.77;9.73;;;20.80;94.20;;;;;;4135415;28;20487;-63
2021/09/09 06:28:22;;;;;;;26.73;9.15;;;21.00;94.30;;;;;;4132502;28;20104;-63
2021/09/09 06:30:23;;;;;;;24.75;7.55;;;20.90;94.10;;;;;;4143040;28;20125;-62
2021/09/09 06:32:25;;;;;;;19.08;8.27;;;21.00;94.20;;;;;;4141542;28;20045;-63
2021/09/09 06:34:26;;;;;;;23.77;8.95;;;21.20;94.00;;;;;;4142869;28;20092;-62
2021/09/09 06:36:27;;;;;;;20.92;8.07;;;21.50;93.70;;;;;;4141315;28;20029;-61
2021/09/09 06:38:28;;;;;;;19.42;7.97;;;21.40;93.50;;;;;;4140577;28;20041;-61
2021/09/09 06:40:30;;;;;;;15.18;8.00;;;21.50;93.50;;;;;;4131306;28;20030;-63
2021/09/09 06:42:31;;;;;;;16.35;8.70;;;21.40;93.50;;;;;;4130654;28;20088;-63
2021/09/09 06:44:32;;;;;;;16.25;8.40;;;21.40;93.50;;;;;;4141876;28;20029;-62
2021/09/09 06:46:33;;;;;;;16.00;8.52;;;21.40;93.50;;;;;;4143281;28;20088;-63
2021/09/09 06:48:34;;;;;;;19.90;8.77;;;21.60;93.50;;;;;;4141936;28;20080;-63
2021/09/09 06:50:35;;;;;;;21.20;9.48;;;21.60;93.10;;;;;;4142709;28;20569;-62
2021/09/09 06:52:37;;;;;;;25.88;9.15;;;21.00;93.10;;;;;;4132470;28;20038;-62
2021/09/09 06:54:38;;;;;;;16.27;8.50;;;20.40;93.50;;;;;;4126338;28;20486;-63
2021/09/09 06:56:39;;;;;;;15.38;8.18;;;19.90;94.40;;;;;;4126996;28;21112;-63
2021/09/09 06:58:40;;;;;;;15.18;6.63;;;19.40;94.60;;;;;;4135419;28;20038;-63
2021/09/09 07:00:41;;;;;;;17.52;8.15;;;19.20;95.10;;;;;;4143243;28;20030;-62
2021/09/09 07:02:43;;;;;;;17.65;7.22;;;19.00;95.20;;;;;;4139609;28;20064;-62
2021/09/09 07:04:44;;;;;;;16.85;8.32;;;18.80;95.50;;;;;;4142878;28;20053;-62
2021/09/09 07:06:45;;;;;;;13.02;8.38;;;18.90;95.40;;;;;;4141012;28;20084;-62
2021/09/09 07:08:46;;;;;;;17.30;8.90;;;19.10;95.40;;;;;;4128072;28;20046;-62
2021/09/09 07:10:47;;;;;;;18.25;8.50;;;19.10;95.20;;;;;;4136185;28;20048;-62
2021/09/09 07:12:48;;;;;;;20.67;9.20;;;19.30;95.20;;;;;;4142346;28;20115;-62
2021/09/09 07:14:49;;;;;;;21.35;9.80;;;19.60;94.90;;;;;;4141425;28;20042;-62
2021/09/09 07:16:50;;;;;;;19.35;10.25;;;19.60;94.90;;;;;;4142761;28;20112;-63
2021/09/09 07:18:51;;;;;;;24.85;9.60;;;19.20;95.30;;;;;;4140863;28;20120;-62
2021/09/09 07:20:53;;;;;;;14.25;9.57;;;19.00;95.80;;;;;;4141662;28;20041;-62
2021/09/09 07:22:54;;;;;;;24.88;9.65;;;18.90;96.00;;;;;;4141807;28;20504;-62
2021/09/09 07:24:55;;;;;;;19.27;9.27;;;18.70;96.30;;;;;;4141465;28;20038;-63
2021/09/09 07:26:56;;;;;;;21.13;9.80;;;18.30;96.80;;;;;;4141937;28;20072;-62
2021/09/09 07:28:57;;;;;;;20.70;10.45;;;18.10;97.40;;;;;;4141464;28;20077;-62
2021/09/09 07:30:58;;;;;;;21.83;9.55;;;18.20;97.40;;;;;;4140090;28;20060;-61
2021/09/09 07:33:00;;;;;;;16.02;9.18;;;18.30;97.40;;;;;;4130911;28;20038;-63
2021/09/09 07:35:01;;;;;;;17.23;9.93;;;18.40;97.40;;;;;;4141156;28;20041;-62
2021/09/09 07:37:03;;;;;;;21.08;9.80;;;18.70;97.30;;;;;;4139246;28;20111;-63
2021/09/09 07:39:04;;;;;;;19.65;9.82;;;18.50;97.60;;;;;;4126772;28;20057;-63
2021/09/09 07:41:05;;;;;;;20.92;9.80;;;18.40;97.90;;;;;;4126267;28;20030;-64
2021/09/09 07:43:08;;;;;;;16.27;10.82;;;18.30;98.10;;;;;;4134067;28;20042;-63
2021/09/09 07:45:10;;;;;;;19.10;9.82;;;18.10;98.40;;;;;;4141080;28;20053;-62
2021/09/09 07:47:11;;;;;;;19.35;11.52;;;18.10;98.70;;;;;;4141845;28;20050;-63
2021/09/09 07:49:15;;;;;;;21.48;10.93;;;18.10;98.80;;;;;;4140131;28;20038;-62
2021/09/09 07:51:18;;;;;;;18.48;10.40;;;18.10;99.20;;;;;;4141904;28;20092;-62
2021/09/09 07:53:20;;;;;;;22.63;10.25;;;18.20;99.20;;;;;;4135467;28;20015;-64
2021/09/09 07:55:21;;;;;;;20.13;10.27;;;18.20;99.20;;;;;;4125630;28;20034;-64
2021/09/09 07:57:22;;;;;;;17.63;9.18;;;18.40;99.20;;;;;;4123419;28;20100;-63
2021/09/09 07:59:24;;;;;;;17.58;9.57;;;18.50;99.20;;;;;;4124633;28;20030;-62
2021/09/09 08:01:25;;;;;;;15.70;9.88;;;18.40;99.60;;;;;;4130678;28;20417;-67
2021/09/09 08:03:26;;;;;;;17.40;9.85;;;18.50;99.70;;;;;;4130717;28;20057;-66
2021/09/09 08:05:27;;;;;;;15.90;9.73;;;18.50;99.80;;;;;;4126843;28;20113;-67
2021/09/09 08:07:28;;;;;;;21.20;9.57;;;18.60;99.80;;;;;;4130649;28;20923;-66
2021/09/09 08:09:30;;;;;;;15.60;8.43;;;18.80;99.60;;;;;;4125637;28;20034;-66
2021/09/09 08:11:31;;;;;;;15.68;8.27;;;18.80;99.60;;;;;;4124945;28;20052;-71
2021/09/09 08:13:32;;;;;;;17.35;8.65;;;18.90;99.90;;;;;;4125705;28;20425;-66
2021/09/09 08:15:33;;;;;;;12.60;8.32;;;19.00;99.90;;;;;;4134851;28;20500;-67
2021/09/09 08:17:34;;;;;;;14.95;8.88;;;19.10;99.80;;;;;;4141443;28;20060;-66
2021/09/09 08:19:35;;;;;;;13.32;7.70;;;19.30;99.70;;;;;;4140597;28;20038;-67
2021/09/09 08:21:37;;;;;;;15.43;8.02;;;19.60;99.40;;;;;;4141759;28;20104;-69
2021/09/09 08:23:38;;;;;;;17.17;6.95;;;19.90;99.10;;;;;;4140742;28;20096;-71
2021/09/09 08:25:39;;;;;;;19.65;7.50;;;20.10;98.90;;;;;;4141580;28;20025;-74
2021/09/09 08:27:41;;;;;;;12.98;6.78;;;20.20;98.80;;;;;;4140733;28;20026;-67
2021/09/09 08:29:42;;;;;;;14.50;7.72;;;20.30;98.70;;;;;;4140513;28;20441;-67
2021/09/09 08:31:43;;;;;;;11.98;7.60;;;20.30;98.50;;;;;;4140916;28;20033;-71
2021/09/09 08:33:44;;;;;;;14.90;8.02;;;20.20;98.70;;;;;;4130830;28;20042;-68
2021/09/09 08:35:45;;;;;;;12.23;7.82;;;20.20;98.70;;;;;;4134665;28;20080;-68
2021/09/09 08:37:47;;;;;;;13.70;6.32;;;20.30;98.70;;;;;;4140098;28;20440;-68
2021/09/09 08:39:48;;;;;;;12.77;6.72;;;20.40;98.60;;;;;;4141090;28;20187;-70
2021/09/09 08:41:49;;;;;;;9.88;5.40;;;20.40;98.50;;;;;;4136342;28;20100;-71
2021/09/09 08:43:51;;;;;;;10.77;5.85;;;20.40;98.30;;;;;;4130858;28;20034;-66
2021/09/09 08:45:53;;;;;;;13.50;5.40;;;20.30;98.30;;;;;;4123974;28;20034;-68
2021/09/09 08:47:58;;;;;;;12.52;5.70;;;20.10;98.50;;;;;;4135220;28;20080;-70
2021/09/09 08:49:59;;;;;;;9.07;4.32;;;20.00;98.50;;;;;;4139177;28;20088;-69
2021/09/09 08:52:03;;;;;;;9.80;4.88;;;20.20;98.50;;;;;;4141386;28;20034;-72
2021/09/09 08:54:05;;;;;;;9.25;5.30;;;20.10;98.30;;;;;;4138223;28;20490;-66
2021/09/09 08:56:06;;;;;;;10.40;4.55;;;20.10;98.30;;;;;;4140969;28;20179;-68
2021/09/09 08:58:08;;;;;;;10.55;5.68;;;20.20;98.20;;;;;;4138199;28;20042;-67
2021/09/09 09:00:10;;;;;;;9.50;5.15;;;20.30;98.00;;;;;;4140223;28;20434;-70
2021/09/09 09:02:11;;;;;;;9.50;4.57;;;20.30;97.90;;;;;;4140518;28;20029;-66
2021/09/09 09:04:13;;;;;;;7.50;4.25;;;20.40;97.70;;;;;;4139657;28;20084;-67
2021/09/09 09:06:24;;;;;;;10.43;4.00;;;20.60;97.60;;;;;;4140918;28;20092;-68
2021/09/09 09:08:27;;;;;;;7.07;3.97;;;20.70;97.50;;;;;;4143602;28;20107;-71
2021/09/09 09:10:29;;;;;;;6.85;2.97;;;20.90;96.90;;;;;;4139520;28;20097;-67
2021/09/09 09:12:47;;;;;;;5.07;3.00;;;20.80;96.70;;;;;;4124667;28;20597;-68
2021/09/09 09:14:48;;;;;;;7.38;3.60;;;20.80;96.40;;;;;;4125236;28;20030;-69
2021/09/09 09:16:55;;;;;;;11.98;3.42;;;20.90;96.60;;;;;;4123738;28;20085;-70
2021/09/09 09:18:58;;;;;;;9.52;3.85;;;21.00;96.60;;;;;;4124485;28;20088;-66
2021/09/09 09:20:59;;;;;;;5.65;2.55;;;21.10;96.30;;;;;;4123223;28;20844;-70
2021/09/09 09:23:12;;;;;;;5.18;3.33;;;21.40;96.00;;;;;;4124596;28;20031;-67
2021/09/09 09:25:14;;;;;;;5.65;2.95;;;21.40;95.70;;;;;;4122980;28;20388;-69
2021/09/09 09:27:16;;;;;;;10.23;3.45;;;21.40;95.50;;;;;;4124347;28;20026;-67
2021/09/09 09:29:24;;;;;;;5.13;3.10;;;21.30;95.50;;;;;;4134367;28;20073;-70
2021/09/09 09:31:26;;;;;;;9.32;3.47;;;21.30;94.90;;;;;;4140804;28;20077;-67
2021/09/09 09:33:42;;;;;;;6.30;3.30;;;21.40;94.90;;;;;;4129372;28;20089;-67
2021/09/09 09:35:43;;;;;;;6.95;3.20;;;21.50;94.80;;;;;;4137125;28;20097;-65
2021/09/09 09:38:10;;;;;;;5.78;2.78;;;21.50;94.50;;;;;;4139118;28;20188;-71
2021/09/09 09:40:21;;;;;;;6.32;2.83;;;21.30;93.30;;;;;;4134127;28;20197;-68
2021/09/09 09:42:26;;;;;;;11.80;3.80;;;21.20;93.70;;;;;;4131247;28;20418;-68
2021/09/09 09:44:39;;;;;;;7.80;3.05;;;21.30;93.70;;;;;;4140541;28;20088;-67
2021/09/09 09:46:41;;;;;;;4.55;2.97;;;21.40;93.70;;;;;;4138684;28;20057;-70
2021/09/09 09:48:42;;;;;;;8.07;3.05;;;21.50;93.20;;;;;;4134752;28;20097;-70
2021/09/09 09:50:43;;;;;;;7.63;3.60;;;21.50;93.20;;;;;;4123374;28;20022;-70
2021/09/09 09:52:46;;;;;;;2.60;1.98;;;21.70;92.70;;;;;;4124644;28;20034;-67
2021/09/09 09:54:58;;;;;;;8.50;2.08;;;21.80;91.50;;;;;;4123375;28;20085;-70
2021/09/09 09:57:00;;;;;;;3.13;2.22;;;21.80;90.40;;;;;;4125277;28;20038;-65
2021/09/09 09:59:02;;;;;;;2.75;2.47;;;21.90;90.60;;;;;;4122908;28;20027;-67
2021/09/09 10:01:03;;;;;;;8.55;3.45;;;21.80;90.50;;;;;;4129730;28;20104;-66
2021/09/09 10:03:05;;;;;;;9.07;2.58;;;21.80;90.40;;;;;;4139626;28;20030;-67
2021/09/09 10:05:07;;;;;;;8.15;2.53;;;21.80;90.30;;;;;;4139618;28;20054;-70
2021/09/09 10:07:10;;;;;;;4.82;2.70;;;21.80;90.10;;;;;;4127348;28;20026;-68
2021/09/09 10:09:12;;;;;;;4.15;2.38;;;21.90;89.60;;;;;;4137050;28;20410;-70
2021/09/09 10:11:13;;;;;;;3.75;2.47;;;21.90;89.50;;;;;;4141872;28;20084;-69
2021/09/09 10:13:17;;;;;;;3.97;2.47;;;21.90;89.20;;;;;;4142494;28;20117;-65
2021/09/09 10:15:22;;;;;;;5.28;2.20;;;21.90;88.60;;;;;;4142948;28;20540;-66
2021/09/09 10:17:26;;;;;;;6.70;2.85;;;21.90;88.60;;;;;;4131055;28;20023;-69
2021/09/09 10:19:30;;;;;;;2.45;2.25;;;22.00;89.10;;;;;;4136204;28;20477;-66
2021/09/09 10:21:48;;;;;;;4.13;2.42;;;22.10;89.10;;;;;;4131694;28;20042;-68
2021/09/09 10:24:10;;;;;;;4.00;2.35;;;22.10;88.20;;;;;;4138508;28;20426;-72
2021/09/09 10:26:27;;;;;;;5.93;2.40;;;22.10;88.50;;;;;;4142332;28;20076;-71
2021/09/09 10:28:34;;;;;;;3.22;2.60;;;22.20;88.50;;;;;;4137716;28;20041;-73
2021/09/09 10:31:03;;;;;;;5.75;2.58;;;22.20;88.20;;;;;;4139836;28;20026;-70